• Join FlightAware (Why Join?)
  • Login
  • US Flag 
11:04AM EST


 

Airport Tracker/Info


-or-


 

Live Flight TrackerFlight Track Log ✈ N84HA ✈ 18-Jan-2014 ✈ KSAV - KFTY

Flight Track Log - Related Links

Times and Time Zones

All times are in EST time to prevent confusion due to time zone crossing. See the N84HA flight status page for this flight to view local times or setup timezone preferences in your user account.

Time Position Orientation Groundspeed Altitude Reporting Facility
EST Latitude Longitude Course Direction KTS MPH feet Rate Location/Type
09:41PM 32.2217 -81.3258 270° West 119 137 6,000  Level Jacksonville Center
09:42PM 32.2386 -81.3575 302° West 119 137 7,100 1,080 Climbing Jacksonville Center
09:43PM 32.2741 -81.4814 301° West  Level FlightAware Approximate
09:43PM 32.2578 -81.3842 310° West 114 131 8,200  Level Jacksonville Center
09:44PM 32.3018 -81.5277 308° West  Level FlightAware Approximate
09:44PM 32.2789 -81.4133 311° West 114 131 9,300  Level Jacksonville Center
09:45PM 32.3167 -81.5785 270° West  Level FlightAware Approximate
09:45PM 32.2983 -81.4522 301° West 120 138 10,500  Level Jacksonville Center
09:46PM 32.3133 -81.4842 299° West 125 144 11,600 1,020 Climbing Jacksonville Center
09:47PM 32.3281 -81.5133 301° West 119 137 12,600 1,020 Climbing Jacksonville Center
09:48PM 32.3472 -81.5475 304° West 119 137 13,700 960 Climbing Jacksonville Center
09:49PM 32.3622 -81.5792 299° West 119 137 14,600 900 Climbing Jacksonville Center
09:50PM 32.3794 -81.6183 298° West 119 137 15,600 480 Climbing Jacksonville Center
09:52PM 32.4214 -81.6914 304° West 135 155 16,100 180 Climbing Atlanta Center
09:53PM 32.4453 -81.7425 299° West 153 176 16,200  Climbing Atlanta Center
09:54PM 32.4692 -81.7886 302° West 165 190 16,200  Level Atlanta Center
09:55PM 32.4908 -81.8325 300° West 170 196 16,200  Level Atlanta Center
09:56PM 32.5144 -81.8811 300° West 170 196 16,200  Level Atlanta Center
09:57PM 32.5383 -81.9272 302° West 170 196 16,200 -60 Level Atlanta Center
09:58PM 32.5642 -81.9783 301° West 175 201 16,100  Descending Atlanta Center
09:59PM 32.5881 -82.0222 303° West 175 201 16,200  Climbing Atlanta Center
10:00PM 32.6139 -82.0733 301° West 175 201 16,100 -60 Descending Atlanta Center
10:01PM 32.6375 -82.1197 301° West 175 201 16,100  Level Atlanta Center
10:02PM 32.6592 -82.1686 298° West 175 201 16,100  Level Atlanta Center
10:03PM 32.6850 -82.2175 302° West 175 201 16,100  Level Atlanta Center
10:04PM 32.7064 -82.2664 297° West 175 201 16,100 -60 Level Atlanta Center
10:05PM 32.7300 -82.3128 301° West 175 201 16,000  Descending Atlanta Center
10:06PM 32.7558 -82.3617 302° West 175 201 16,100  Climbing Atlanta Center
10:07PM 32.7772 -82.4058 300° West 175 201 16,100  Level Atlanta Center
10:08PM 32.8008 -82.4547 300° West 169 194 16,100 -60 Level Atlanta Center
10:09PM 32.8225 -82.5014 299° West 169 194 16,000 -60 Descending Atlanta Center
10:10PM 32.8458 -82.5481 301° West 169 194 16,000  Level Atlanta Center
10:11PM 32.8714 -82.5944 303° West 163 188 16,000  Level Atlanta Center
10:12PM 32.8931 -82.6436 298° West 163 188 16,000  Level Atlanta Center
10:13PM 32.9164 -82.6903 301° West 163 188 16,000  Level Atlanta Center
10:14PM 32.9378 -82.7369 299° West 163 188 16,100  Climbing Atlanta Center
10:15PM 32.9611 -82.7836 301° West 163 188 16,000 -60 Descending Atlanta Center
10:16PM 32.9847 -82.8303 301° West 163 188 16,000 -240 Level Atlanta Center
10:17PM 33.0081 -82.8794 300° West 163 188 15,600 -600 Descending Atlanta Center
10:18PM 33.0336 -82.9311 301° West 168 193 14,900 -840 Descending Atlanta Center
10:19PM 33.0592 -82.9878 298° West 180 207 14,000 -960 Descending Atlanta Center
10:20PM 33.0847 -83.0447 298° West 196 226 13,000 -900 Descending Atlanta Center
10:21PM 33.1122 -83.0964 302° West 196 226 12,300 -720 Descending Atlanta Center
10:22PM 33.1356 -83.1508 297° West 191 220 11,600 -780 Descending Atlanta Center
10:23PM 33.1653 -83.2000 306° West 179 206 10,800 -780 Descending Atlanta Center
10:24PM 33.1883 -83.2494 299° West 179 206 10,100 -720 Descending Atlanta Center
10:25PM 33.2139 -83.3064 298° West 185 213 9,400 -720 Descending Atlanta Center
10:27PM 33.2667 -83.4000 304° West 172 198 8,000 -480 Descending Atlanta TRACON
10:28PM 33.2833 -83.4500 292° West 162 186 8,100  Climbing Atlanta TRACON
10:29PM 33.3000 -83.4833 301° West 148 170 8,000 -60 Descending Atlanta TRACON
10:30PM 33.3333 -83.5333 309° West 147 169 8,000  Level Atlanta TRACON
10:31PM 33.3500 -83.5833 292° West 148 170 8,000  Level Atlanta TRACON
10:32PM 33.3667 -83.6167 301° West 146 168 8,000  Level Atlanta TRACON
10:33PM 33.3833 -83.6667 292° West 145 167 8,000 -60 Level Atlanta TRACON
10:34PM 33.4000 -83.7000 301° West 147 169 7,900 -360 Descending Atlanta TRACON
10:35PM 33.4333 -83.7500 309° West 160 184 7,300 -600 Descending Atlanta TRACON
10:36PM 33.4667 -83.7833 320° Northwest 177 204 6,800 -420 Descending Atlanta TRACON
10:37PM 33.5167 -83.8000 344° North 167 192 6,500 -360 Descending Atlanta TRACON
10:38PM 33.5333 -83.8500 292° West 158 182 6,100 -540 Descending Atlanta TRACON
10:39PM 33.5667 -83.8833 320° Northwest 161 185 5,500 -600 Descending Atlanta TRACON
10:40PM 33.6000 -83.9333 309° West 165 190 4,900 -720 Descending Atlanta TRACON
10:41PM 33.6167 -83.9833 292° West 170 196 4,100 -480 Descending Atlanta TRACON
10:42PM 33.6500 -84.0167 320° Northwest 158 182 4,000 -60 Descending Atlanta TRACON
10:43PM 33.6667 -84.0667 292° West 152 175 4,000  Level Atlanta TRACON
10:44PM 33.7000 -84.1000 320° Northwest 138 159 4,000  Level Atlanta TRACON
10:45PM 33.7167 -84.1333 301° West 140 161 4,000  Level Atlanta TRACON
10:46PM 33.7500 -84.1667 320° Northwest 137 158 4,000  Level Atlanta TRACON
10:47PM 33.7667 -84.2000 301° West 139 160 4,000 -120 Level Atlanta TRACON
10:48PM 33.8000 -84.2500 309° West 148 170 3,800 -420 Descending Atlanta TRACON
10:49PM 33.8167 -84.3000 292° West 157 181 3,200 -300 Descending Atlanta TRACON
10:50PM 33.8000 -84.3500 248° West 130 150 3,200 -240 Level Atlanta TRACON
10:51PM 33.8000 -84.3833 270° West 117 135 2,700 -480 Descending Atlanta TRACON
10:52PM 33.8000 -84.4167 270° West 100 115 2,300 -360 Descending Atlanta TRACON
10:53PM 33.7833 -84.4500 239° Southwest 100 115 2,000 -420 Descending Atlanta TRACON
10:54PM 33.7833 -84.4833 270° West 102 117 1,500 -540 Descending Atlanta TRACON
10:56PM 33.7667 -84.5167 270° West  Level FlightAware Approximate
11:03PM 33.7791 -84.5214 270° West  Level Estimated